Pine Bush, New York
Current Conditions -  °F | °C
As of 2:02 AM on Thursday 27 Nov 2014 (Local Time) from KMGJ Reporting Station
Overcast Overcast  
Wind Chill: 32°   Ceiling: 7000
Heat Index: 32°   Visibility: 10mi
Dew Point: 30°   Wind: 0mph
Humidity: 92%   Direction: NA
Pressure: 29.88"   Gusts: NA
Location:  41.61°N, 74.3°W
Report Text: KMGJ 270702Z AUTO 00000KT 10SM SCT006 BKN070 OVC120 00/M01 A2988 RMK AO2 T00001011 TSNO $
Loading
Personal Weather Stations






























Interactive Weather Map New forecast layout! Learn more

10-Day Weather Forecast

Advertisements
Track Severe Weather on mobile